Time;durP1;ratioP1;P1;durP2;ratioP2;P2;SDS_P1;SDS_P2;PMS_P1;PMS_P2;Temp;Humidity;BMP_temperature;BMP_pressure;BME280_temperature;BME280_humidity;BME280_pressure;Samples;Min_cycle;Max_cycle;Signal;HPM_P1;HPM_P2
2023/10/09 00:01:50;;;;;;;13.40;4.63;;;;;;;;;;4984876;28;20048;-72
2023/10/09 00:04:16;;;;;;;14.10;3.97;;;;;;;;;;4984342;28;20047;-73
2023/10/09 00:06:42;;;;;;;13.68;4.57;;;;;;;;;;4983640;28;20054;-72
2023/10/09 00:12:34;;;;;;;9.48;4.78;;;;;;;;;;4985357;28;21174;-73
2023/10/09 00:15:09;;;;;;;5.82;3.15;;;;;;;;;;4984966;28;20046;-73
2023/10/09 00:17:37;;;;;;;11.20;3.83;;;;;;;;;;4979233;28;20053;-72
2023/10/09 00:20:08;;;;;;;9.45;3.65;;;;;;;;;;4982112;28;20057;-72
2023/10/09 00:22:38;;;;;;;14.23;3.88;;;;;;;;;;4980027;28;20160;-72
2023/10/09 00:25:10;;;;;;;14.05;4.13;;;;;;;;;;4982098;28;20101;-72
2023/10/09 00:27:39;;;;;;;11.45;3.60;;;;;;;;;;4980811;28;20042;-72
2023/10/09 00:30:06;;;;;;;11.38;4.00;;;;;;;;;;4980608;28;20440;-72
2023/10/09 00:32:33;;;;;;;9.70;4.05;;;;;;;;;;4980171;28;20502;-72
2023/10/09 00:35:36;;;;;;;10.73;4.28;;;;;;;;;;4981604;28;20035;-72
2023/10/09 00:37:45;;;;;;;16.38;4.07;;;;;;;;;;4980627;28;20065;-72
2023/10/09 00:40:22;;;;;;;10.57;4.40;;;;;;;;;;4996225;28;20042;-72
2023/10/09 00:42:48;;;;;;;12.95;3.92;;;;;;;;;;4978172;28;20057;-71
2023/10/09 00:45:24;;;;;;;10.77;4.03;;;;;;;;;;4996463;28;20046;-71
2023/10/09 00:47:51;;;;;;;16.08;4.68;;;;;;;;;;4979797;28;20050;-71
2023/10/09 00:53:30;;;;;;;10.07;3.83;;;;;;;;;;4980733;28;20090;-72
2023/10/09 00:58:14;;;;;;;14.10;4.30;;;;;;;;;;4981128;28;20120;-72
2023/10/09 01:05:52;;;;;;;12.02;3.88;;;;;;;;;;4978327;28;20062;-70
2023/10/09 01:11:18;;;;;;;15.27;4.03;;;;;;;;;;4977160;28;20550;-72
2023/10/09 01:16:17;;;;;;;14.88;4.20;;;;;;;;;;4990118;28;20066;-72
2023/10/09 01:18:49;;;;;;;10.98;3.72;;;;;;;;;;4979395;28;20061;-73
2023/10/09 01:21:23;;;;;;;13.90;4.25;;;;;;;;;;4979334;28;20479;-71
2023/10/09 01:26:39;;;;;;;8.00;3.90;;;;;;;;;;4979971;28;20082;-72
2023/10/09 01:29:14;;;;;;;15.88;4.03;;;;;;;;;;4980535;28;20053;-72
2023/10/09 01:31:56;;;;;;;8.57;3.45;;;;;;;;;;4980991;28;20101;-71
2023/10/09 01:34:49;;;;;;;11.55;4.00;;;;;;;;;;4980074;28;20035;-71
2023/10/09 01:37:19;;;;;;;13.32;3.35;;;;;;;;;;4977699;28;20440;-72
2023/10/09 01:39:50;;;;;;;11.55;3.88;;;;;;;;;;4991270;28;20053;-72
2023/10/09 01:47:39;;;;;;;10.52;3.75;;;;;;;;;;4980176;28;20145;-72
2023/10/09 01:50:11;;;;;;;9.75;3.60;;;;;;;;;;4993982;28;20058;-72
2023/10/09 01:52:37;;;;;;;10.20;3.28;;;;;;;;;;4979975;28;20065;-72
2023/10/09 01:55:27;;;;;;;8.68;3.70;;;;;;;;;;4979161;28;20050;-72
2023/10/09 01:57:49;;;;;;;8.32;3.15;;;;;;;;;;4979790;28;20089;-72
2023/10/09 02:00:22;;;;;;;23.92;3.65;;;;;;;;;;4994618;28;20124;-72
2023/10/09 02:02:48;;;;;;;8.93;3.80;;;;;;;;;;4993530;28;20050;-72
2023/10/09 02:07:51;;;;;;;24.90;3.95;;;;;;;;;;4980577;28;20399;-73
2023/10/09 02:13:11;;;;;;;13.70;3.90;;;;;;;;;;4978538;28;20496;-71
2023/10/09 02:24:26;;;;;;;12.00;3.95;;;;;;;;;;4977543;28;20950;-71
2023/10/09 02:26:40;;;;;;;11.60;3.50;;;;;;;;;;4976973;28;20054;-74
2023/10/09 02:29:18;;;;;;;16.58;3.70;;;;;;;;;;4978346;28;20104;-72
2023/10/09 02:31:51;;;;;;;18.33;3.72;;;;;;;;;;4978388;28;20049;-72
2023/10/09 02:34:23;;;;;;;15.88;3.88;;;;;;;;;;4977154;28;20092;-72
2023/10/09 02:36:49;;;;;;;14.32;3.70;;;;;;;;;;4977871;28;20072;-71
2023/10/09 02:39:28;;;;;;;20.25;3.53;;;;;;;;;;4978760;28;20699;-72
2023/10/09 02:42:01;;;;;;;12.10;3.53;;;;;;;;;;4987672;28;20047;-71
2023/10/09 02:44:32;;;;;;;15.50;3.70;;;;;;;;;;4991160;28;20142;-71
2023/10/09 02:46:57;;;;;;;10.48;3.63;;;;;;;;;;4987026;28;20046;-72
2023/10/09 02:49:24;;;;;;;13.27;3.55;;;;;;;;;;4993859;28;20046;-71
2023/10/09 02:51:53;;;;;;;16.42;3.78;;;;;;;;;;4977993;28;20216;-71
2023/10/09 02:54:27;;;;;;;19.90;3.72;;;;;;;;;;4978066;28;20045;-72
2023/10/09 02:56:58;;;;;;;19.20;3.67;;;;;;;;;;4977517;28;20105;-71
2023/10/09 02:59:23;;;;;;;8.55;3.58;;;;;;;;;;4977466;28;20634;-72
2023/10/09 03:01:49;;;;;;;13.32;4.00;;;;;;;;;;4979249;28;20209;-74
2023/10/09 03:04:15;;;;;;;13.65;3.40;;;;;;;;;;4994326;28;20524;-72
2023/10/09 03:06:50;;;;;;;10.60;3.67;;;;;;;;;;4976608;28;20149;-72
2023/10/09 03:09:27;;;;;;;15.48;3.80;;;;;;;;;;4977738;28;20495;-72
2023/10/09 03:12:03;;;;;;;18.40;4.28;;;;;;;;;;4974985;28;20042;-72
2023/10/09 03:14:30;;;;;;;10.85;4.03;;;;;;;;;;4976964;28;20046;-72
2023/10/09 03:16:57;;;;;;;16.85;4.32;;;;;;;;;;4978260;28;20260;-72
2023/10/09 03:19:25;;;;;;;10.43;3.60;;;;;;;;;;4977659;28;20046;-72
2023/10/09 03:21:50;;;;;;;9.38;3.10;;;;;;;;;;4977521;28;20880;-73
2023/10/09 03:24:16;;;;;;;11.93;2.88;;;;;;;;;;4977381;28;20046;-76
2023/10/09 03:26:44;;;;;;;12.95;3.20;;;;;;;;;;4977272;28;20062;-73
2023/10/09 03:29:10;;;;;;;11.90;3.35;;;;;;;;;;4978409;28;20054;-73
2023/10/09 03:31:36;;;;;;;12.50;3.20;;;;;;;;;;4978485;28;20081;-73
2023/10/09 03:34:02;;;;;;;12.30;3.50;;;;;;;;;;4978719;28;20053;-73
2023/10/09 03:36:30;;;;;;;9.30;3.10;;;;;;;;;;4978729;28;20078;-73
2023/10/09 03:38:57;;;;;;;13.90;4.25;;;;;;;;;;4977031;28;20089;-72
2023/10/09 03:41:29;;;;;;;12.70;3.88;;;;;;;;;;4977047;28;20136;-72
2023/10/09 03:43:54;;;;;;;10.30;3.07;;;;;;;;;;4978653;28;20148;-73
2023/10/09 03:46:32;;;;;;;11.70;3.30;;;;;;;;;;4977804;28;20576;-72
2023/10/09 03:49:00;;;;;;;15.77;3.10;;;;;;;;;;4977763;28;20053;-72
2023/10/09 03:51:26;;;;;;;11.77;2.92;;;;;;;;;;4977573;28;20045;-72
2023/10/09 03:53:55;;;;;;;18.55;3.80;;;;;;;;;;4980795;28;20623;-72
2023/10/09 03:56:23;;;;;;;8.52;3.33;;;;;;;;;;4981041;28;20487;-71
2023/10/09 03:58:50;;;;;;;8.50;3.03;;;;;;;;;;4981884;28;20104;-73
2023/10/09 04:01:31;;;;;;;16.80;2.85;;;;;;;;;;4963237;28;20652;-73
2023/10/09 04:04:02;;;;;;;19.70;3.35;;;;;;;;;;4980524;28;20046;-73
2023/10/09 04:06:32;;;;;;;8.07;3.05;;;;;;;;;;4981480;28;20137;-76
2023/10/09 04:09:13;;;;;;;10.23;3.90;;;;;;;;;;4981867;28;20042;-74
2023/10/09 04:11:43;;;;;;;12.30;3.10;;;;;;;;;;4978918;28;20039;-74
2023/10/09 04:14:13;;;;;;;12.75;2.75;;;;;;;;;;4980709;28;20046;-73
2023/10/09 04:16:51;;;;;;;14.48;3.63;;;;;;;;;;4980222;28;20096;-74
2023/10/09 04:19:21;;;;;;;15.65;3.83;;;;;;;;;;4967293;28;20053;-75
2023/10/09 04:21:48;;;;;;;10.35;2.85;;;;;;;;;;4971863;28;20096;-74
2023/10/09 04:26:46;;;;;;;7.68;2.28;;;;;;;;;;4980355;28;20570;-74
2023/10/09 04:29:26;;;;;;;12.20;3.58;;;;;;;;;;4981053;28;20042;-73
2023/10/09 04:31:53;;;;;;;10.23;2.75;;;;;;;;;;4976800;28;20097;-73
2023/10/09 04:34:22;;;;;;;10.52;3.05;;;;;;;;;;4977437;28;20042;-72
2023/10/09 04:37:36;;;;;;;12.38;3.08;;;;;;;;;;4980397;28;20095;-73
2023/10/09 04:39:49;;;;;;;12.75;3.08;;;;;;;;;;4967672;28;20154;-75
2023/10/09 04:47:35;;;;;;;11.13;2.97;;;;;;;;;;4979946;28;20050;-75
2023/10/09 04:50:11;;;;;;;10.57;3.28;;;;;;;;;;4979253;28;20050;-73
2023/10/09 05:02:56;;;;;;;16.80;2.60;;;;;;;;;;4983654;28;20050;-73
2023/10/09 05:08:29;;;;;;;9.43;2.83;;;;;;;;;;4979984;28;20050;-72
2023/10/09 05:18:59;;;;;;;5.93;2.30;;;;;;;;;;4980006;28;20083;-73
2023/10/09 05:32:03;;;;;;;9.90;2.67;;;;;;;;;;4980860;28;20034;-74
2023/10/09 05:37:32;;;;;;;;;;;;;;;;;;4977726;28;20077;-71
2023/10/09 05:42:42;;;;;;;10.25;1.75;;;;;;;;;;4978474;28;20042;-73
2023/10/09 06:04:33;;;;;;;8.18;2.05;;;;;;;;;;4979683;28;20140;-73
2023/10/09 06:07:11;;;;;;;11.20;2.53;;;;;;;;;;4964046;28;20042;-73
2023/10/09 06:10:37;;;;;;;9.32;2.42;;;;;;;;;;4980606;28;20081;-73
2023/10/09 06:12:49;;;;;;;6.72;1.80;;;;;;;;;;4988111;28;20061;-74
2023/10/09 06:19:07;;;;;;;11.18;2.10;;;;;;;;;;4957747;28;20548;-73
2023/10/09 06:21:19;;;;;;;12.90;2.25;;;;;;;;;;4948225;28;20089;-74
2023/10/09 06:24:09;;;;;;;9.77;2.05;;;;;;;;;;4979711;28;20046;-72
2023/10/09 06:26:34;;;;;;;9.10;2.03;;;;;;;;;;4979296;28;20185;-72
2023/10/09 06:29:15;;;;;;;11.55;1.98;;;;;;;;;;4978836;28;20129;-74
2023/10/09 06:32:05;;;;;;;18.35;2.80;;;;;;;;;;4980018;28;20030;-74
2023/10/09 06:34:35;;;;;;;10.05;2.55;;;;;;;;;;4977615;28;20046;-75
2023/10/09 06:37:17;;;;;;;6.95;2.42;;;;;;;;;;4986017;28;20054;-74
2023/10/09 06:41:33;;;;;;;;;;;;;;;;;;4980257;28;20392;-73
2023/10/09 06:45:18;;;;;;;17.35;2.75;;;;;;;;;;4977945;28;20133;-72
2023/10/09 06:47:55;;;;;;;5.05;1.83;;;;;;;;;;4971581;28;20038;-73
2023/10/09 06:50:24;;;;;;;8.93;2.20;;;;;;;;;;4977444;28;20085;-74
2023/10/09 06:55:48;;;;;;;11.65;2.60;;;;;;;;;;4978092;28;20052;-72
2023/10/09 06:58:41;;;;;;;7.88;2.40;;;;;;;;;;4977135;28;20054;-72
2023/10/09 07:14:08;;;;;;;11.45;2.40;;;;;;;;;;4979131;28;20077;-72
2023/10/09 07:16:56;;;;;;;14.63;2.90;;;;;;;;;;4996067;28;20574;-73
2023/10/09 07:22:04;;;;;;;10.63;2.05;;;;;;;;;;4998062;28;20054;-73
2023/10/09 07:24:43;;;;;;;9.23;2.65;;;;;;;;;;4980192;28;20065;-73
2023/10/09 07:27:15;;;;;;;14.77;2.58;;;;;;;;;;4986111;28;20073;-73
2023/10/09 07:29:47;;;;;;;9.68;2.78;;;;;;;;;;4998471;28;20046;-74
2023/10/09 07:32:20;;;;;;;16.88;2.60;;;;;;;;;;4981656;28;20046;-74
2023/10/09 07:34:59;;;;;;;11.90;2.95;;;;;;;;;;4982670;28;20088;-74
2023/10/09 07:37:30;;;;;;;12.05;2.45;;;;;;;;;;4982613;28;20611;-74
2023/10/09 07:40:06;;;;;;;9.68;2.22;;;;;;;;;;4982883;28;20058;-74
2023/10/09 07:48:02;;;;;;;9.57;2.50;;;;;;;;;;4981210;28;20514;-75
2023/10/09 07:51:11;;;;;;;8.10;2.58;;;;;;;;;;4980274;28;20065;-72
2023/10/09 07:53:26;;;;;;;10.13;2.20;;;;;;;;;;4974600;28;20149;-73
2023/10/09 07:55:58;;;;;;;16.27;2.03;;;;;;;;;;4982529;28;20065;-73
2023/10/09 07:58:26;;;;;;;11.45;2.75;;;;;;;;;;4981755;28;20126;-73
2023/10/09 08:01:15;;;;;;;12.55;1.88;;;;;;;;;;4981311;28;20116;-74
2023/10/09 08:03:46;;;;;;;11.02;2.75;;;;;;;;;;4982015;28;20081;-74
2023/10/09 08:11:59;;;;;;;15.15;2.00;;;;;;;;;;4980407;28;20053;-73
2023/10/09 08:14:41;;;;;;;11.43;2.08;;;;;;;;;;4980940;28;20050;-72
2023/10/09 08:17:27;;;;;;;11.85;2.63;;;;;;;;;;4980403;28;20053;-73
2023/10/09 08:20:11;;;;;;;9.32;2.15;;;;;;;;;;4982091;28;20070;-73
2023/10/09 08:22:43;;;;;;;9.38;2.92;;;;;;;;;;4980481;28;20050;-74
2023/10/09 08:31:02;;;;;;;9.48;2.00;;;;;;;;;;4979889;28;20046;-73
2023/10/09 08:33:42;;;;;;;12.07;2.22;;;;;;;;;;4982270;28;20488;-75
2023/10/09 08:36:14;;;;;;;10.48;2.03;;;;;;;;;;4981309;28;20065;-75
2023/10/09 08:38:42;;;;;;;16.60;2.45;;;;;;;;;;4964000;28;20042;-75
2023/10/09 08:41:17;;;;;;;17.05;2.40;;;;;;;;;;4984142;28;20433;-73
2023/10/09 08:43:53;;;;;;;17.20;2.85;;;;;;;;;;4997293;28;20046;-74
2023/10/09 08:46:21;;;;;;;9.73;2.72;;;;;;;;;;4963248;28;20169;-77
2023/10/09 08:48:48;;;;;;;15.73;2.33;;;;;;;;;;4981789;28;20088;-74
2023/10/09 08:51:14;;;;;;;9.20;2.55;;;;;;;;;;4981599;28;20053;-74
2023/10/09 08:53:42;;;;;;;15.73;3.65;;;;;;;;;;4981756;28;20046;-74
2023/10/09 08:56:14;;;;;;;10.82;2.92;;;;;;;;;;4996366;28;20124;-75
2023/10/09 08:58:41;;;;;;;18.60;3.08;;;;;;;;;;4994977;28;20403;-75
2023/10/09 09:01:06;;;;;;;15.13;2.50;;;;;;;;;;4996216;28;20132;-76
2023/10/09 09:03:40;;;;;;;16.45;2.58;;;;;;;;;;4979751;28;20161;-75
2023/10/09 09:06:06;;;;;;;9.48;2.30;;;;;;;;;;4979860;28;20062;-75
2023/10/09 09:08:36;;;;;;;14.25;2.38;;;;;;;;;;4979971;28;20049;-75
2023/10/09 09:11:12;;;;;;;11.45;2.00;;;;;;;;;;4981987;28;20070;-75
2023/10/09 09:13:41;;;;;;;10.48;2.67;;;;;;;;;;4982027;28;20042;-75
2023/10/09 09:16:15;;;;;;;12.57;2.58;;;;;;;;;;4964387;28;20058;-74
2023/10/09 09:19:11;;;;;;;14.48;3.03;;;;;;;;;;4981834;28;20104;-76
2023/10/09 09:21:38;;;;;;;11.05;2.13;;;;;;;;;;4980023;28;20054;-75
2023/10/09 09:24:26;;;;;;;17.85;2.47;;;;;;;;;;4979890;28;20058;-74
2023/10/09 09:27:09;;;;;;;10.73;2.03;;;;;;;;;;4947819;28;20082;-75
2023/10/09 09:29:36;;;;;;;11.32;2.33;;;;;;;;;;4981214;28;20077;-75
2023/10/09 09:32:19;;;;;;;13.63;2.70;;;;;;;;;;4980538;28;20042;-74
2023/10/09 09:34:54;;;;;;;18.25;2.45;;;;;;;;;;4962827;28;20046;-76
2023/10/09 09:37:24;;;;;;;11.55;1.77;;;;;;;;;;4980211;28;20054;-74
2023/10/09 09:39:51;;;;;;;12.18;2.67;;;;;;;;;;4980865;28;20080;-76
2023/10/09 09:42:18;;;;;;;16.58;2.83;;;;;;;;;;4978554;28;20050;-75
2023/10/09 09:44:44;;;;;;;12.18;2.45;;;;;;;;;;4978558;28;20459;-75
2023/10/09 09:47:23;;;;;;;10.63;2.60;;;;;;;;;;4980215;28;20050;-75
2023/10/09 09:49:50;;;;;;;18.27;2.40;;;;;;;;;;4979096;28;20049;-75
2023/10/09 09:52:18;;;;;;;9.60;2.45;;;;;;;;;;4979767;28;20046;-75
2023/10/09 09:54:44;;;;;;;6.03;2.10;;;;;;;;;;4962485;28;20054;-75
2023/10/09 09:57:13;;;;;;;13.95;2.53;;;;;;;;;;4978998;28;20050;-74
2023/10/09 09:59:40;;;;;;;10.98;3.03;;;;;;;;;;4962456;28;20442;-74
2023/10/09 10:02:10;;;;;;;13.57;2.55;;;;;;;;;;4978512;28;20069;-73
2023/10/09 10:04:39;;;;;;;10.93;1.95;;;;;;;;;;4978730;28;20065;-73
2023/10/09 10:07:09;;;;;;;9.52;1.90;;;;;;;;;;4978669;28;20049;-72
2023/10/09 10:09:41;;;;;;;11.93;2.28;;;;;;;;;;4963100;28;20460;-74
2023/10/09 10:12:10;;;;;;;11.23;2.05;;;;;;;;;;4962743;28;20050;-74
2023/10/09 10:15:16;;;;;;;10.95;2.38;;;;;;;;;;4976905;28;20500;-74
2023/10/09 10:17:58;;;;;;;11.85;2.28;;;;;;;;;;4978605;28;20052;-74
2023/10/09 10:20:25;;;;;;;10.85;2.40;;;;;;;;;;4977604;28;20144;-73
2023/10/09 10:23:12;;;;;;;13.20;2.90;;;;;;;;;;4979897;28;20542;-73
2023/10/09 10:25:48;;;;;;;17.92;3.92;;;;;;;;;;4977203;28;20057;-72
2023/10/09 10:28:42;;;;;;;20.55;2.55;;;;;;;;;;4980624;28;20050;-75
2023/10/09 10:31:08;;;;;;;10.20;2.88;;;;;;;;;;4970551;28;20929;-75
2023/10/09 10:33:55;;;;;;;9.63;2.33;;;;;;;;;;4979845;28;20046;-75
2023/10/09 10:36:24;;;;;;;21.02;2.78;;;;;;;;;;4978770;28;20544;-74
2023/10/09 10:39:08;;;;;;;12.32;2.45;;;;;;;;;;4979583;28;20049;-75
2023/10/09 10:41:38;;;;;;;14.57;2.95;;;;;;;;;;4979035;28;20056;-72
2023/10/09 10:44:33;;;;;;;11.38;2.50;;;;;;;;;;4978540;28;20050;-75
2023/10/09 10:46:55;;;;;;;10.80;2.45;;;;;;;;;;4981077;28;20687;-73
2023/10/09 10:49:21;;;;;;;14.32;2.42;;;;;;;;;;4978619;28;20053;-75
2023/10/09 10:51:49;;;;;;;14.25;2.95;;;;;;;;;;4979529;28;20130;-75
2023/10/09 10:57:00;;;;;;;13.93;2.83;;;;;;;;;;4976559;28;20256;-75
2023/10/09 10:59:36;;;;;;;11.07;2.55;;;;;;;;;;4977113;28;20531;-74
2023/10/09 11:04:44;;;;;;;12.07;2.83;;;;;;;;;;4978618;28;20081;-75
2023/10/09 11:07:12;;;;;;;12.63;2.67;;;;;;;;;;4977468;28;20052;-74
2023/10/09 11:12:55;;;;;;;16.83;2.65;;;;;;;;;;4978268;28;20093;-74
2023/10/09 11:15:44;;;;;;;15.80;3.22;;;;;;;;;;4982587;28;20066;-75
2023/10/09 11:18:20;;;;;;;13.13;3.35;;;;;;;;;;4978904;28;20057;-75
2023/10/09 11:23:53;;;;;;;17.20;3.22;;;;;;;;;;4977695;28;20051;-75
2023/10/09 11:32:06;;;;;;;;;;;;;;;;;;4959466;28;20500;-75
2023/10/09 11:34:34;;;;;;;13.48;3.08;;;;;;;;;;4957868;28;19925;-74
2023/10/09 11:39:58;;;;;;;18.35;2.78;;;;;;;;;;4938594;28;20055;-77
2023/10/09 11:45:29;;;;;;;19.77;4.00;;;;;;;;;;4944489;28;20162;-76
2023/10/09 11:48:20;;;;;;;18.25;3.78;;;;;;;;;;4955655;28;20520;-77
2023/10/09 11:50:56;;;;;;;20.50;3.03;;;;;;;;;;4975542;28;20054;-75
2023/10/09 11:55:48;;;;;;;15.13;3.05;;;;;;;;;;4976617;28;20101;-76
2023/10/09 11:58:22;;;;;;;16.30;3.72;;;;;;;;;;4976368;28;20097;-77
2023/10/09 12:01:04;;;;;;;16.55;3.33;;;;;;;;;;4975127;28;21209;-76
2023/10/09 12:03:31;;;;;;;25.23;2.92;;;;;;;;;;4975307;28;20471;-76
2023/10/09 12:05:58;;;;;;;12.05;2.70;;;;;;;;;;4975319;28;20050;-76
2023/10/09 12:08:29;;;;;;;26.27;2.53;;;;;;;;;;4974935;28;20078;-76
2023/10/09 12:10:55;;;;;;;;;;;;;;;;;;4959926;28;20046;-76
2023/10/09 12:13:25;;;;;;;21.50;3.55;;;;;;;;;;4977800;28;19918;-75
2023/10/09 12:15:54;;;;;;;17.80;2.90;;;;;;;;;;4977955;28;20042;-76
2023/10/09 12:18:23;;;;;;;12.85;2.97;;;;;;;;;;4979862;28;20053;-77
2023/10/09 12:20:50;;;;;;;19.80;3.17;;;;;;;;;;4979337;28;20042;-76
2023/10/09 12:23:18;;;;;;;21.02;3.53;;;;;;;;;;4979612;28;20061;-74
2023/10/09 12:25:46;;;;;;;27.92;4.00;;;;;;;;;;4979607;28;20080;-74
2023/10/09 12:28:12;;;;;;;17.80;3.50;;;;;;;;;;4977464;28;20050;-75
2023/10/09 12:30:41;;;;;;;20.83;3.47;;;;;;;;;;4979520;28;20042;-74
2023/10/09 12:33:08;;;;;;;21.95;3.80;;;;;;;;;;4981022;28;20140;-76
2023/10/09 12:35:38;;;;;;;18.38;3.30;;;;;;;;;;4981243;28;20034;-75
2023/10/09 12:38:08;;;;;;;17.60;3.38;;;;;;;;;;4978276;28;20076;-75
2023/10/09 12:40:34;;;;;;;18.88;4.10;;;;;;;;;;4980793;28;20046;-74
2023/10/09 12:43:00;;;;;;;16.05;3.28;;;;;;;;;;4981435;28;20062;-75
2023/10/09 12:45:26;;;;;;;15.93;3.35;;;;;;;;;;4981500;28;20089;-75
2023/10/09 12:48:03;;;;;;;19.65;3.38;;;;;;;;;;4981023;28;20580;-75
2023/10/09 12:50:34;;;;;;;10.18;2.53;;;;;;;;;;4979337;28;20089;-69
2023/10/09 12:53:06;;;;;;;21.55;2.95;;;;;;;;;;4981186;28;20050;-70
2023/10/09 12:55:37;;;;;;;14.73;2.88;;;;;;;;;;4980491;28;20050;-70
2023/10/09 12:58:06;;;;;;;15.63;3.20;;;;;;;;;;4980693;28;20081;-70
2023/10/09 13:00:33;;;;;;;16.30;3.83;;;;;;;;;;4979557;28;20066;-71
2023/10/09 13:03:01;;;;;;;20.15;2.60;;;;;;;;;;4980758;28;20074;-70
2023/10/09 13:05:27;;;;;;;23.00;3.50;;;;;;;;;;4980810;28;20100;-71
2023/10/09 13:07:53;;;;;;;16.75;3.65;;;;;;;;;;4980623;28;20108;-71
2023/10/09 13:10:23;;;;;;;19.98;2.88;;;;;;;;;;4980075;28;20149;-71
2023/10/09 13:12:55;;;;;;;18.60;3.60;;;;;;;;;;4979996;28;20119;-70
2023/10/09 13:15:20;;;;;;;20.50;3.42;;;;;;;;;;4980505;28;20061;-70
2023/10/09 13:17:46;;;;;;;16.63;2.85;;;;;;;;;;4980054;28;20046;-70
2023/10/09 13:20:15;;;;;;;16.60;3.60;;;;;;;;;;4980589;28;20154;-70
2023/10/09 13:22:42;;;;;;;10.48;2.72;;;;;;;;;;4978406;28;20491;-69
2023/10/09 13:25:24;;;;;;;11.13;2.97;;;;;;;;;;4980231;28;20052;-71
2023/10/09 13:27:53;;;;;;;13.85;2.75;;;;;;;;;;4980300;28;20057;-71
2023/10/09 13:30:21;;;;;;;21.05;2.80;;;;;;;;;;4994858;28;20055;-71
2023/10/09 13:32:53;;;;;;;15.25;3.08;;;;;;;;;;4977792;28;20150;-70
2023/10/09 13:35:19;;;;;;;10.30;2.17;;;;;;;;;;4978749;28;20330;-69
2023/10/09 13:37:53;;;;;;;19.02;3.20;;;;;;;;;;4979038;28;20748;-71
2023/10/09 13:40:33;;;;;;;11.25;3.42;;;;;;;;;;4976110;28;20060;-69
2023/10/09 13:42:58;;;;;;;19.98;3.58;;;;;;;;;;4990726;28;20054;-69
2023/10/09 13:45:28;;;;;;;20.17;3.28;;;;;;;;;;4976785;28;21010;-70
2023/10/09 13:47:57;;;;;;;19.15;3.20;;;;;;;;;;4977717;28;20042;-70
2023/10/09 13:50:28;;;;;;;13.20;2.85;;;;;;;;;;4975395;28;20213;-70
2023/10/09 13:52:54;;;;;;;15.98;3.10;;;;;;;;;;4978539;28;20057;-70
2023/10/09 13:55:19;;;;;;;14.40;2.95;;;;;;;;;;4979423;28;20050;-70
2023/10/09 13:57:45;;;;;;;11.35;2.95;;;;;;;;;;4994173;28;20069;-70
2023/10/09 14:00:17;;;;;;;15.48;3.58;;;;;;;;;;4980002;28;20054;-70
2023/10/09 14:02:43;;;;;;;10.52;2.78;;;;;;;;;;4979463;28;20046;-69
2023/10/09 14:05:09;;;;;;;39.58;4.25;;;;;;;;;;4979844;28;20076;-70
2023/10/09 14:07:34;;;;;;;23.38;3.58;;;;;;;;;;4994199;28;20444;-70
2023/10/09 14:10:17;;;;;;;14.27;3.13;;;;;;;;;;4980267;28;20050;-71
2023/10/09 14:12:44;;;;;;;16.30;3.67;;;;;;;;;;4977736;28;20046;-70
2023/10/09 14:15:16;;;;;;;16.92;2.92;;;;;;;;;;4980046;28;20046;-70
2023/10/09 14:17:42;;;;;;;15.02;2.80;;;;;;;;;;4977297;28;20460;-71
2023/10/09 14:20:30;;;;;;;15.77;3.40;;;;;;;;;;4980014;28;20619;-70
2023/10/09 14:22:55;;;;;;;17.38;2.78;;;;;;;;;;4956846;28;20499;-71
2023/10/09 14:25:21;;;;;;;16.70;2.90;;;;;;;;;;4942461;28;20131;-72
2023/10/09 14:27:48;;;;;;;22.55;3.25;;;;;;;;;;4959560;28;20141;-71
2023/10/09 14:30:22;;;;;;;9.65;2.38;;;;;;;;;;4958671;28;20082;-69
2023/10/09 14:32:53;;;;;;;11.93;3.25;;;;;;;;;;4979229;28;20058;-71
2023/10/09 14:35:21;;;;;;;15.03;2.97;;;;;;;;;;4978847;28;20053;-71
2023/10/09 14:37:47;;;;;;;14.38;3.08;;;;;;;;;;4979136;28;20292;-70
2023/10/09 14:40:20;;;;;;;13.68;3.42;;;;;;;;;;4978722;28;20054;-70
2023/10/09 14:42:46;;;;;;;11.05;2.45;;;;;;;;;;4993910;28;20109;-71
2023/10/09 14:45:18;;;;;;;23.27;3.60;;;;;;;;;;4979085;28;20054;-70
2023/10/09 14:47:43;;;;;;;14.52;2.85;;;;;;;;;;4979177;28;20083;-70
2023/10/09 14:50:09;;;;;;;15.82;3.67;;;;;;;;;;4979090;28;20137;-70
2023/10/09 14:52:38;;;;;;;18.27;2.78;;;;;;;;;;4974877;28;20104;-69
2023/10/09 14:55:05;;;;;;;21.40;3.00;;;;;;;;;;4976742;28;20054;-71
2023/10/09 14:57:33;;;;;;;19.27;2.97;;;;;;;;;;4974971;28;20075;-69
2023/10/09 14:59:59;;;;;;;18.02;3.05;;;;;;;;;;4975645;28;20056;-71
2023/10/09 15:02:25;;;;;;;21.42;2.92;;;;;;;;;;4974697;28;20046;-71
2023/10/09 15:04:52;;;;;;;9.00;3.03;;;;;;;;;;4976722;28;20491;-70
2023/10/09 15:07:18;;;;;;;8.15;2.33;;;;;;;;;;4990553;28;20157;-71
2023/10/09 15:09:44;;;;;;;18.02;2.63;;;;;;;;;;4975802;28;20129;-70
2023/10/09 15:12:11;;;;;;;17.38;3.08;;;;;;;;;;4975312;28;20103;-70
2023/10/09 15:14:37;;;;;;;11.07;3.30;;;;;;;;;;4975191;28;20042;-71
2023/10/09 15:17:02;;;;;;;19.63;3.80;;;;;;;;;;4971300;28;20056;-70
2023/10/09 15:19:30;;;;;;;11.32;2.58;;;;;;;;;;4976548;28;20042;-74
2023/10/09 15:21:58;;;;;;;12.85;2.60;;;;;;;;;;4976097;28;20129;-74
2023/10/09 15:24:25;;;;;;;11.43;3.10;;;;;;;;;;4974282;28;20042;-73
2023/10/09 15:26:57;;;;;;;12.90;3.55;;;;;;;;;;4976459;28;20045;-73
2023/10/09 15:29:30;;;;;;;14.35;3.15;;;;;;;;;;4975340;28;20074;-74
2023/10/09 15:32:04;;;;;;;24.20;3.42;;;;;;;;;;4975436;28;20039;-74
2023/10/09 15:34:36;;;;;;;16.35;2.72;;;;;;;;;;4959174;28;20038;-75
2023/10/09 15:37:03;;;;;;;16.88;3.03;;;;;;;;;;4976810;28;20046;-74
2023/10/09 15:39:30;;;;;;;15.02;3.05;;;;;;;;;;4959111;28;20053;-74
2023/10/09 15:41:56;;;;;;;11.40;3.08;;;;;;;;;;4974761;28;20161;-74
2023/10/09 15:44:24;;;;;;;14.43;3.03;;;;;;;;;;4974995;28;20104;-74
2023/10/09 15:46:53;;;;;;;13.23;2.75;;;;;;;;;;4977595;28;20573;-74
2023/10/09 15:49:18;;;;;;;20.10;2.90;;;;;;;;;;4979452;28;20089;-74
2023/10/09 15:51:47;;;;;;;15.95;2.75;;;;;;;;;;4978164;28;20515;-74
2023/10/09 15:54:14;;;;;;;11.32;2.70;;;;;;;;;;4979275;28;20172;-74
2023/10/09 15:56:41;;;;;;;13.88;2.47;;;;;;;;;;4977407;28;20460;-74
2023/10/09 15:59:08;;;;;;;14.00;2.83;;;;;;;;;;4980603;28;20875;-75
2023/10/09 16:01:35;;;;;;;15.88;3.03;;;;;;;;;;4978828;28;20058;-75
2023/10/09 16:04:00;;;;;;;10.80;2.63;;;;;;;;;;4980002;28;20086;-74
2023/10/09 16:06:30;;;;;;;16.67;2.63;;;;;;;;;;4976016;28;20142;-74
2023/10/09 16:08:56;;;;;;;16.10;3.10;;;;;;;;;;4979697;28;20046;-74
2023/10/09 16:11:25;;;;;;;16.83;2.60;;;;;;;;;;4982261;28;20097;-74
2023/10/09 16:13:51;;;;;;;16.70;2.90;;;;;;;;;;4981876;28;21057;-74
2023/10/09 16:16:29;;;;;;;15.63;2.85;;;;;;;;;;4964822;28;20054;-74
2023/10/09 16:18:55;;;;;;;14.93;2.55;;;;;;;;;;4992577;28;20144;-75
2023/10/09 16:21:24;;;;;;;9.10;3.00;;;;;;;;;;4980237;28;20129;-73
2023/10/09 16:23:50;;;;;;;8.30;2.40;;;;;;;;;;4980151;28;20057;-73
2023/10/09 16:26:16;;;;;;;8.35;2.63;;;;;;;;;;4980972;28;20046;-73
2023/10/09 16:28:42;;;;;;;16.65;4.35;;;;;;;;;;4979015;28;20046;-74
2023/10/09 16:31:13;;;;;;;20.20;4.18;;;;;;;;;;4980291;28;20101;-73
2023/10/09 16:33:39;;;;;;;13.95;3.60;;;;;;;;;;4981756;28;20054;-73
2023/10/09 16:36:04;;;;;;;18.40;3.45;;;;;;;;;;4980285;28;20049;-74
2023/10/09 16:38:30;;;;;;;21.30;3.08;;;;;;;;;;4980877;28;20411;-74
2023/10/09 16:40:55;;;;;;;12.65;3.00;;;;;;;;;;4981249;28;20046;-73
2023/10/09 16:43:27;;;;;;;20.38;2.97;;;;;;;;;;4981185;28;20042;-73
2023/10/09 16:45:56;;;;;;;18.85;3.47;;;;;;;;;;4976317;28;20035;-73
2023/10/09 16:48:27;;;;;;;17.77;2.88;;;;;;;;;;4963908;28;20043;-74
2023/10/09 16:50:54;;;;;;;19.10;3.40;;;;;;;;;;4965157;28;20138;-72
2023/10/09 16:53:19;;;;;;;10.05;2.85;;;;;;;;;;4980014;28;20212;-72
2023/10/09 16:55:45;;;;;;;16.55;2.47;;;;;;;;;;4978831;28;20952;-74
2023/10/09 16:58:12;;;;;;;11.43;3.33;;;;;;;;;;4978314;28;20046;-73
2023/10/09 17:00:39;;;;;;;12.63;3.40;;;;;;;;;;4976212;28;20522;-73
2023/10/09 17:03:08;;;;;;;17.65;3.38;;;;;;;;;;4978046;28;20416;-74
2023/10/09 17:05:36;;;;;;;19.70;2.85;;;;;;;;;;4979887;28;20092;-74
2023/10/09 17:08:09;;;;;;;13.23;2.83;;;;;;;;;;4979695;28;20811;-74
2023/10/09 17:10:38;;;;;;;12.23;3.47;;;;;;;;;;4978638;28;20058;-73
2023/10/09 17:13:07;;;;;;;12.77;3.55;;;;;;;;;;4979185;28;20474;-73
2023/10/09 17:15:36;;;;;;;14.18;2.90;;;;;;;;;;4978017;28;20109;-73
2023/10/09 17:18:02;;;;;;;18.05;3.40;;;;;;;;;;4978671;28;20046;-73
2023/10/09 17:20:28;;;;;;;9.90;2.90;;;;;;;;;;4977440;28;20057;-74
2023/10/09 17:22:59;;;;;;;11.02;2.80;;;;;;;;;;4977041;28;20073;-74
2023/10/09 17:25:25;;;;;;;14.55;3.30;;;;;;;;;;4978540;28;20053;-74
2023/10/09 17:27:51;;;;;;;14.25;3.30;;;;;;;;;;4978309;28;20128;-73
2023/10/09 17:30:17;;;;;;;18.20;3.35;;;;;;;;;;4978156;28;20481;-73
2023/10/09 17:32:46;;;;;;;14.50;3.55;;;;;;;;;;4977475;28;20057;-72
2023/10/09 17:35:13;;;;;;;12.88;2.95;;;;;;;;;;4972161;28;20982;-73
2023/10/09 17:37:40;;;;;;;22.25;2.95;;;;;;;;;;4976753;28;20053;-72
2023/10/09 17:40:07;;;;;;;8.13;2.78;;;;;;;;;;4977353;28;20097;-73
2023/10/09 17:42:36;;;;;;;19.92;3.13;;;;;;;;;;4975909;28;20149;-73
2023/10/09 17:45:04;;;;;;;15.30;3.40;;;;;;;;;;4977877;28;20046;-72
2023/10/09 17:47:36;;;;;;;18.73;3.45;;;;;;;;;;4977609;28;20096;-73
2023/10/09 17:50:06;;;;;;;9.60;3.15;;;;;;;;;;4978038;28;20065;-72